Sacramento, California
Traffic Map
Current Weather Conditions
Sacramento, California
Clear
Clear
29°
Feels Like: 29°
Wind Chill: 29° Ceiling: Unl
Heat Index: 29° Visibility: 10mi
Dew Point: Wind: 8mph
Humidity: 19% Direction: 330° (NNW)
Pressure: 29.87in Gusts: 20mph
Raw Report DataKSAC 252153Z 33007G17KT 10SM CLR 29/03 A2987 RMK AO2 SLP114 T02890028
Traffic Incident Summary
Active as of:
Severity:
Category:
InformationThere was an issue retrieving the traffic information for this location. Please try a different location or try again shortly.
Advertisements